sensor_id;sensor_type;location;lat;lon;timestamp;P1;durP1;ratioP1;P2;durP2;ratioP2
44816;SDS011;30529;53.570;9.964;2023-02-16T00:01:46;26.60;;;15.27;;
44816;SDS011;30529;53.570;9.964;2023-02-16T00:04:23;23.00;;;14.43;;
44816;SDS011;30529;53.570;9.964;2023-02-16T00:06:51;23.37;;;14.57;;
44816;SDS011;30529;53.570;9.964;2023-02-16T00:09:18;23.10;;;14.20;;
44816;SDS011;30529;53.570;9.964;2023-02-16T00:11:45;23.67;;;14.53;;
44816;SDS011;30529;53.570;9.964;2023-02-16T00:14:32;21.80;;;14.03;;
44816;SDS011;30529;53.570;9.964;2023-02-16T00:17:00;21.93;;;14.10;;
44816;SDS011;30529;53.570;9.964;2023-02-16T00:19:36;21.77;;;14.67;;
44816;SDS011;30529;53.570;9.964;2023-02-16T00:22:04;24.17;;;15.30;;
44816;SDS011;30529;53.570;9.964;2023-02-16T00:24:31;22.87;;;14.57;;
44816;SDS011;30529;53.570;9.964;2023-02-16T00:26:57;25.20;;;15.23;;
44816;SDS011;30529;53.570;9.964;2023-02-16T00:29:26;25.97;;;15.37;;
44816;SDS011;30529;53.570;9.964;2023-02-16T00:31:54;22.13;;;13.87;;
44816;SDS011;30529;53.570;9.964;2023-02-16T00:36:53;22.50;;;15.33;;
44816;SDS011;30529;53.570;9.964;2023-02-16T00:39:20;24.17;;;15.40;;
44816;SDS011;30529;53.570;9.964;2023-02-16T00:41:46;27.03;;;15.77;;
44816;SDS011;30529;53.570;9.964;2023-02-16T00:44:17;26.97;;;15.27;;
44816;SDS011;30529;53.570;9.964;2023-02-16T00:46:47;25.73;;;15.37;;
44816;SDS011;30529;53.570;9.964;2023-02-16T00:49:17;24.43;;;15.73;;
44816;SDS011;30529;53.570;9.964;2023-02-16T00:51:44;27.30;;;16.87;;
44816;SDS011;30529;53.570;9.964;2023-02-16T00:54:10;25.47;;;15.47;;
44816;SDS011;30529;53.570;9.964;2023-02-16T00:56:37;29.33;;;16.17;;
44816;SDS011;30529;53.570;9.964;2023-02-16T00:59:05;31.43;;;16.83;;
44816;SDS011;30529;53.570;9.964;2023-02-16T01:01:33;28.17;;;17.73;;
44816;SDS011;30529;53.570;9.964;2023-02-16T01:04:02;29.27;;;17.13;;
44816;SDS011;30529;53.570;9.964;2023-02-16T01:06:30;31.60;;;17.90;;
44816;SDS011;30529;53.570;9.964;2023-02-16T01:09:16;31.80;;;17.20;;
44816;SDS011;30529;53.570;9.964;2023-02-16T01:12:04;28.27;;;16.80;;
44816;SDS011;30529;53.570;9.964;2023-02-16T01:14:37;29.77;;;17.17;;
44816;SDS011;30529;53.570;9.964;2023-02-16T01:17:03;32.70;;;16.87;;
44816;SDS011;30529;53.570;9.964;2023-02-16T01:19:29;32.27;;;18.47;;
44816;SDS011;30529;53.570;9.964;2023-02-16T01:21:55;26.87;;;16.53;;
44816;SDS011;30529;53.570;9.964;2023-02-16T01:24:20;30.70;;;18.43;;
44816;SDS011;30529;53.570;9.964;2023-02-16T01:26:48;32.37;;;17.40;;
44816;SDS011;30529;53.570;9.964;2023-02-16T01:29:16;33.03;;;17.43;;
44816;SDS011;30529;53.570;9.964;2023-02-16T01:31:43;32.30;;;18.07;;
44816;SDS011;30529;53.570;9.964;2023-02-16T01:34:10;29.50;;;17.97;;
44816;SDS011;30529;53.570;9.964;2023-02-16T01:36:38;31.53;;;17.63;;
44816;SDS011;30529;53.570;9.964;2023-02-16T01:39:06;31.00;;;18.77;;
44816;SDS011;30529;53.570;9.964;2023-02-16T01:41:53;34.13;;;18.27;;
44816;SDS011;30529;53.570;9.964;2023-02-16T01:44:46;34.53;;;18.40;;
44816;SDS011;30529;53.570;9.964;2023-02-16T01:47:25;28.67;;;16.37;;
44816;SDS011;30529;53.570;9.964;2023-02-16T01:50:16;31.80;;;19.70;;
44816;SDS011;30529;53.570;9.964;2023-02-16T01:52:47;33.57;;;19.17;;
44816;SDS011;30529;53.570;9.964;2023-02-16T01:55:23;30.27;;;18.50;;
44816;SDS011;30529;53.570;9.964;2023-02-16T01:57:55;36.33;;;19.50;;
44816;SDS011;30529;53.570;9.964;2023-02-16T02:01:05;32.00;;;18.23;;
44816;SDS011;30529;53.570;9.964;2023-02-16T02:03:16;32.27;;;19.07;;
44816;SDS011;30529;53.570;9.964;2023-02-16T02:06:21;33.40;;;18.33;;
44816;SDS011;30529;53.570;9.964;2023-02-16T02:09:06;36.07;;;19.57;;
44816;SDS011;30529;53.570;9.964;2023-02-16T02:11:37;32.27;;;18.90;;
44816;SDS011;30529;53.570;9.964;2023-02-16T02:14:12;33.80;;;18.87;;
44816;SDS011;30529;53.570;9.964;2023-02-16T02:16:56;31.83;;;19.00;;
44816;SDS011;30529;53.570;9.964;2023-02-16T02:19:24;30.40;;;18.33;;
44816;SDS011;30529;53.570;9.964;2023-02-16T02:25:13;32.37;;;18.43;;
44816;SDS011;30529;53.570;9.964;2023-02-16T02:31:02;34.50;;;18.80;;
44816;SDS011;30529;53.570;9.964;2023-02-16T02:41:47;35.37;;;18.97;;
44816;SDS011;30529;53.570;9.964;2023-02-16T02:44:46;36.13;;;20.10;;
44816;SDS011;30529;53.570;9.964;2023-02-16T02:47:14;34.53;;;19.17;;
44816;SDS011;30529;53.570;9.964;2023-02-16T02:49:51;30.97;;;19.67;;
44816;SDS011;30529;53.570;9.964;2023-02-16T02:52:19;34.87;;;17.90;;
44816;SDS011;30529;53.570;9.964;2023-02-16T02:54:45;37.43;;;20.00;;
44816;SDS011;30529;53.570;9.964;2023-02-16T02:57:36;32.53;;;18.97;;
44816;SDS011;30529;53.570;9.964;2023-02-16T03:00:45;34.40;;;19.53;;
44816;SDS011;30529;53.570;9.964;2023-02-16T03:03:18;31.70;;;18.60;;
44816;SDS011;30529;53.570;9.964;2023-02-16T03:06:07;29.20;;;17.63;;
44816;SDS011;30529;53.570;9.964;2023-02-16T03:08:38;33.87;;;19.63;;
44816;SDS011;30529;53.570;9.964;2023-02-16T03:11:12;33.33;;;19.63;;
44816;SDS011;30529;53.570;9.964;2023-02-16T03:14:06;32.70;;;18.67;;
44816;SDS011;30529;53.570;9.964;2023-02-16T03:16:47;35.80;;;19.37;;
44816;SDS011;30529;53.570;9.964;2023-02-16T03:19:35;32.53;;;18.37;;
44816;SDS011;30529;53.570;9.964;2023-02-16T03:22:22;36.97;;;19.83;;
44816;SDS011;30529;53.570;9.964;2023-02-16T03:25:07;29.00;;;18.30;;
44816;SDS011;30529;53.570;9.964;2023-02-16T03:27:51;29.87;;;19.13;;
44816;SDS011;30529;53.570;9.964;2023-02-16T03:30:38;29.87;;;18.03;;
44816;SDS011;30529;53.570;9.964;2023-02-16T03:33:06;32.30;;;18.93;;
44816;SDS011;30529;53.570;9.964;2023-02-16T03:35:32;32.97;;;17.37;;
44816;SDS011;30529;53.570;9.964;2023-02-16T03:37:59;29.73;;;19.60;;
44816;SDS011;30529;53.570;9.964;2023-02-16T03:40:25;38.20;;;19.40;;
44816;SDS011;30529;53.570;9.964;2023-02-16T03:42:55;31.77;;;19.47;;
44816;SDS011;30529;53.570;9.964;2023-02-16T03:45:23;32.10;;;18.47;;
44816;SDS011;30529;53.570;9.964;2023-02-16T03:47:49;33.67;;;18.33;;
44816;SDS011;30529;53.570;9.964;2023-02-16T03:50:15;30.23;;;18.27;;
44816;SDS011;30529;53.570;9.964;2023-02-16T03:52:41;31.03;;;17.87;;
44816;SDS011;30529;53.570;9.964;2023-02-16T03:55:08;31.23;;;18.77;;
44816;SDS011;30529;53.570;9.964;2023-02-16T03:57:34;33.10;;;18.80;;
44816;SDS011;30529;53.570;9.964;2023-02-16T04:00:00;27.90;;;18.43;;
44816;SDS011;30529;53.570;9.964;2023-02-16T04:02:27;33.20;;;18.83;;
44816;SDS011;30529;53.570;9.964;2023-02-16T04:04:53;32.97;;;18.70;;
44816;SDS011;30529;53.570;9.964;2023-02-16T04:07:19;33.40;;;19.43;;
44816;SDS011;30529;53.570;9.964;2023-02-16T04:09:45;26.37;;;16.67;;
44816;SDS011;30529;53.570;9.964;2023-02-16T04:12:11;34.30;;;18.80;;
44816;SDS011;30529;53.570;9.964;2023-02-16T04:14:56;32.83;;;18.20;;
44816;SDS011;30529;53.570;9.964;2023-02-16T04:17:23;28.33;;;18.07;;
44816;SDS011;30529;53.570;9.964;2023-02-16T04:19:49;37.83;;;19.27;;
44816;SDS011;30529;53.570;9.964;2023-02-16T04:22:15;31.77;;;17.80;;
44816;SDS011;30529;53.570;9.964;2023-02-16T04:24:41;27.03;;;17.90;;
44816;SDS011;30529;53.570;9.964;2023-02-16T04:27:07;30.60;;;19.03;;
44816;SDS011;30529;53.570;9.964;2023-02-16T04:29:33;29.80;;;17.73;;
44816;SDS011;30529;53.570;9.964;2023-02-16T04:31:59;34.50;;;18.17;;
44816;SDS011;30529;53.570;9.964;2023-02-16T04:34:25;29.20;;;18.17;;
44816;SDS011;30529;53.570;9.964;2023-02-16T04:36:51;30.27;;;17.73;;
44816;SDS011;30529;53.570;9.964;2023-02-16T04:39:17;41.73;;;18.67;;
44816;SDS011;30529;53.570;9.964;2023-02-16T04:41:44;31.20;;;19.23;;
44816;SDS011;30529;53.570;9.964;2023-02-16T04:44:10;35.10;;;18.87;;
44816;SDS011;30529;53.570;9.964;2023-02-16T04:46:36;31.30;;;18.63;;
44816;SDS011;30529;53.570;9.964;2023-02-16T04:49:02;31.93;;;18.47;;
44816;SDS011;30529;53.570;9.964;2023-02-16T04:51:28;29.47;;;17.93;;
44816;SDS011;30529;53.570;9.964;2023-02-16T04:53:54;33.73;;;18.10;;
44816;SDS011;30529;53.570;9.964;2023-02-16T04:56:20;31.73;;;17.83;;
44816;SDS011;30529;53.570;9.964;2023-02-16T04:58:46;30.63;;;19.00;;
44816;SDS011;30529;53.570;9.964;2023-02-16T05:01:22;30.30;;;17.77;;
44816;SDS011;30529;53.570;9.964;2023-02-16T05:03:49;34.30;;;18.50;;
44816;SDS011;30529;53.570;9.964;2023-02-16T05:06:15;32.67;;;17.70;;
44816;SDS011;30529;53.570;9.964;2023-02-16T05:08:42;29.60;;;17.47;;
44816;SDS011;30529;53.570;9.964;2023-02-16T05:11:08;32.23;;;18.30;;
44816;SDS011;30529;53.570;9.964;2023-02-16T05:13:54;31.10;;;17.13;;
44816;SDS011;30529;53.570;9.964;2023-02-16T05:16:40;31.07;;;17.70;;
44816;SDS011;30529;53.570;9.964;2023-02-16T05:19:06;32.13;;;18.10;;
44816;SDS011;30529;53.570;9.964;2023-02-16T05:21:33;30.27;;;18.57;;
44816;SDS011;30529;53.570;9.964;2023-02-16T05:24:04;32.57;;;17.57;;
44816;SDS011;30529;53.570;9.964;2023-02-16T05:26:32;30.17;;;17.37;;
44816;SDS011;30529;53.570;9.964;2023-02-16T05:29:00;31.90;;;18.77;;
44816;SDS011;30529;53.570;9.964;2023-02-16T05:31:26;28.20;;;16.93;;
44816;SDS011;30529;53.570;9.964;2023-02-16T05:33:52;32.77;;;18.40;;
44816;SDS011;30529;53.570;9.964;2023-02-16T05:36:18;29.73;;;17.93;;
44816;SDS011;30529;53.570;9.964;2023-02-16T05:38:45;26.60;;;16.43;;
44816;SDS011;30529;53.570;9.964;2023-02-16T05:41:11;30.30;;;17.77;;
44816;SDS011;30529;53.570;9.964;2023-02-16T05:43:54;29.60;;;17.43;;
44816;SDS011;30529;53.570;9.964;2023-02-16T05:46:23;32.70;;;18.33;;
44816;SDS011;30529;53.570;9.964;2023-02-16T05:48:50;29.20;;;16.27;;
44816;SDS011;30529;53.570;9.964;2023-02-16T05:51:17;30.23;;;18.27;;
44816;SDS011;30529;53.570;9.964;2023-02-16T05:53:43;37.83;;;19.17;;
44816;SDS011;30529;53.570;9.964;2023-02-16T05:56:09;33.03;;;19.30;;
44816;SDS011;30529;53.570;9.964;2023-02-16T05:58:36;32.83;;;19.10;;
44816;SDS011;30529;53.570;9.964;2023-02-16T06:01:02;30.97;;;17.63;;
44816;SDS011;30529;53.570;9.964;2023-02-16T06:03:29;30.37;;;16.83;;
44816;SDS011;30529;53.570;9.964;2023-02-16T06:05:56;29.07;;;17.40;;
44816;SDS011;30529;53.570;9.964;2023-02-16T06:08:23;32.23;;;18.60;;
44816;SDS011;30529;53.570;9.964;2023-02-16T06:10:50;31.37;;;17.53;;
44816;SDS011;30529;53.570;9.964;2023-02-16T06:13:17;29.03;;;17.70;;
44816;SDS011;30529;53.570;9.964;2023-02-16T06:15:44;32.67;;;18.13;;
44816;SDS011;30529;53.570;9.964;2023-02-16T06:18:11;36.83;;;19.30;;
44816;SDS011;30529;53.570;9.964;2023-02-16T06:20:38;35.77;;;19.37;;
44816;SDS011;30529;53.570;9.964;2023-02-16T06:23:05;32.90;;;19.40;;
44816;SDS011;30529;53.570;9.964;2023-02-16T06:25:32;31.67;;;18.40;;
44816;SDS011;30529;53.570;9.964;2023-02-16T06:27:58;35.40;;;18.83;;
44816;SDS011;30529;53.570;9.964;2023-02-16T06:30:25;31.83;;;19.20;;
44816;SDS011;30529;53.570;9.964;2023-02-16T06:32:51;35.27;;;19.47;;
44816;SDS011;30529;53.570;9.964;2023-02-16T06:35:17;37.73;;;20.73;;
44816;SDS011;30529;53.570;9.964;2023-02-16T06:37:43;34.97;;;19.73;;
44816;SDS011;30529;53.570;9.964;2023-02-16T06:40:12;39.27;;;21.63;;
44816;SDS011;30529;53.570;9.964;2023-02-16T06:42:39;36.67;;;21.13;;
44816;SDS011;30529;53.570;9.964;2023-02-16T06:45:06;37.77;;;21.27;;
44816;SDS011;30529;53.570;9.964;2023-02-16T06:47:33;36.33;;;20.10;;
44816;SDS011;30529;53.570;9.964;2023-02-16T06:49:59;34.13;;;20.77;;
44816;SDS011;30529;53.570;9.964;2023-02-16T06:52:26;37.90;;;20.53;;
44816;SDS011;30529;53.570;9.964;2023-02-16T06:54:52;35.73;;;19.97;;
44816;SDS011;30529;53.570;9.964;2023-02-16T06:57:18;37.33;;;20.87;;
44816;SDS011;30529;53.570;9.964;2023-02-16T06:59:44;40.00;;;21.30;;
44816;SDS011;30529;53.570;9.964;2023-02-16T07:02:10;38.30;;;21.83;;
44816;SDS011;30529;53.570;9.964;2023-02-16T07:04:36;35.17;;;20.27;;
44816;SDS011;30529;53.570;9.964;2023-02-16T07:07:02;39.33;;;22.83;;
44816;SDS011;30529;53.570;9.964;2023-02-16T07:09:28;34.87;;;19.93;;
44816;SDS011;30529;53.570;9.964;2023-02-16T07:11:54;37.43;;;20.73;;
44816;SDS011;30529;53.570;9.964;2023-02-16T07:14:20;35.57;;;20.17;;
44816;SDS011;30529;53.570;9.964;2023-02-16T07:16:47;42.20;;;22.67;;
44816;SDS011;30529;53.570;9.964;2023-02-16T07:19:13;37.13;;;21.53;;
44816;SDS011;30529;53.570;9.964;2023-02-16T07:21:39;49.43;;;22.53;;
44816;SDS011;30529;53.570;9.964;2023-02-16T07:24:05;38.17;;;22.13;;
44816;SDS011;30529;53.570;9.964;2023-02-16T07:26:31;40.77;;;22.10;;
44816;SDS011;30529;53.570;9.964;2023-02-16T07:28:57;37.60;;;22.63;;
44816;SDS011;30529;53.570;9.964;2023-02-16T07:31:23;43.50;;;23.13;;
44816;SDS011;30529;53.570;9.964;2023-02-16T07:33:50;41.43;;;22.50;;
44816;SDS011;30529;53.570;9.964;2023-02-16T07:36:17;39.60;;;21.63;;
44816;SDS011;30529;53.570;9.964;2023-02-16T07:38:43;39.70;;;21.90;;
44816;SDS011;30529;53.570;9.964;2023-02-16T07:41:09;39.97;;;22.93;;
44816;SDS011;30529;53.570;9.964;2023-02-16T07:43:38;39.43;;;23.90;;
44816;SDS011;30529;53.570;9.964;2023-02-16T07:46:07;37.30;;;22.23;;
44816;SDS011;30529;53.570;9.964;2023-02-16T07:48:33;37.77;;;21.63;;
44816;SDS011;30529;53.570;9.964;2023-02-16T07:50:59;40.93;;;22.33;;
44816;SDS011;30529;53.570;9.964;2023-02-16T07:53:26;35.17;;;21.40;;
44816;SDS011;30529;53.570;9.964;2023-02-16T07:55:52;41.10;;;23.30;;
44816;SDS011;30529;53.570;9.964;2023-02-16T07:58:17;39.77;;;23.00;;
44816;SDS011;30529;53.570;9.964;2023-02-16T08:00:56;35.47;;;21.80;;
44816;SDS011;30529;53.570;9.964;2023-02-16T08:03:31;32.30;;;20.20;;
44816;SDS011;30529;53.570;9.964;2023-02-16T08:05:59;41.23;;;21.30;;
44816;SDS011;30529;53.570;9.964;2023-02-16T08:08:25;38.00;;;20.87;;
44816;SDS011;30529;53.570;9.964;2023-02-16T08:10:51;35.20;;;20.90;;
44816;SDS011;30529;53.570;9.964;2023-02-16T08:13:17;36.80;;;21.37;;
44816;SDS011;30529;53.570;9.964;2023-02-16T08:15:43;37.77;;;21.73;;
44816;SDS011;30529;53.570;9.964;2023-02-16T08:18:09;34.97;;;20.93;;
44816;SDS011;30529;53.570;9.964;2023-02-16T08:20:36;37.33;;;21.50;;
44816;SDS011;30529;53.570;9.964;2023-02-16T08:23:02;38.30;;;22.27;;
44816;SDS011;30529;53.570;9.964;2023-02-16T08:25:27;37.83;;;21.50;;
44816;SDS011;30529;53.570;9.964;2023-02-16T08:27:54;38.97;;;21.67;;
44816;SDS011;30529;53.570;9.964;2023-02-16T08:30:20;38.10;;;21.87;;
44816;SDS011;30529;53.570;9.964;2023-02-16T08:32:49;36.20;;;21.33;;
44816;SDS011;30529;53.570;9.964;2023-02-16T08:35:16;38.23;;;21.87;;
44816;SDS011;30529;53.570;9.964;2023-02-16T08:37:42;34.83;;;21.43;;
44816;SDS011;30529;53.570;9.964;2023-02-16T08:40:09;41.40;;;23.03;;
44816;SDS011;30529;53.570;9.964;2023-02-16T08:42:35;36.67;;;21.37;;
44816;SDS011;30529;53.570;9.964;2023-02-16T08:45:02;38.80;;;22.53;;
44816;SDS011;30529;53.570;9.964;2023-02-16T08:47:29;34.93;;;21.97;;
44816;SDS011;30529;53.570;9.964;2023-02-16T08:49:55;40.33;;;22.20;;
44816;SDS011;30529;53.570;9.964;2023-02-16T08:52:21;36.03;;;20.57;;
44816;SDS011;30529;53.570;9.964;2023-02-16T08:54:47;34.33;;;21.80;;
44816;SDS011;30529;53.570;9.964;2023-02-16T08:57:13;35.40;;;21.47;;
44816;SDS011;30529;53.570;9.964;2023-02-16T08:59:40;34.43;;;21.83;;
44816;SDS011;30529;53.570;9.964;2023-02-16T09:02:06;41.57;;;23.03;;
44816;SDS011;30529;53.570;9.964;2023-02-16T09:04:34;36.20;;;21.47;;
44816;SDS011;30529;53.570;9.964;2023-02-16T09:07:02;34.67;;;21.67;;
44816;SDS011;30529;53.570;9.964;2023-02-16T09:09:28;31.47;;;20.70;;
44816;SDS011;30529;53.570;9.964;2023-02-16T09:11:54;33.40;;;21.67;;
44816;SDS011;30529;53.570;9.964;2023-02-16T09:14:21;34.20;;;20.70;;
44816;SDS011;30529;53.570;9.964;2023-02-16T09:16:47;37.47;;;21.97;;
44816;SDS011;30529;53.570;9.964;2023-02-16T09:19:14;34.53;;;20.23;;
44816;SDS011;30529;53.570;9.964;2023-02-16T09:21:42;32.63;;;20.60;;
44816;SDS011;30529;53.570;9.964;2023-02-16T09:24:09;38.33;;;22.40;;
44816;SDS011;30529;53.570;9.964;2023-02-16T09:26:36;35.40;;;21.90;;
44816;SDS011;30529;53.570;9.964;2023-02-16T09:29:06;33.67;;;20.47;;
44816;SDS011;30529;53.570;9.964;2023-02-16T09:31:32;37.70;;;22.40;;
44816;SDS011;30529;53.570;9.964;2023-02-16T09:34:05;36.07;;;21.87;;
44816;SDS011;30529;53.570;9.964;2023-02-16T09:36:43;32.63;;;22.00;;
44816;SDS011;30529;53.570;9.964;2023-02-16T09:39:09;39.27;;;22.97;;
44816;SDS011;30529;53.570;9.964;2023-02-16T09:41:56;31.03;;;20.27;;
44816;SDS011;30529;53.570;9.964;2023-02-16T09:47:29;38.60;;;21.80;;
44816;SDS011;30529;53.570;9.964;2023-02-16T09:49:59;35.67;;;21.57;;
44816;SDS011;30529;53.570;9.964;2023-02-16T09:52:34;35.30;;;21.43;;
44816;SDS011;30529;53.570;9.964;2023-02-16T09:55:12;32.50;;;20.80;;
44816;SDS011;30529;53.570;9.964;2023-02-16T09:57:43;34.10;;;20.90;;
44816;SDS011;30529;53.570;9.964;2023-02-16T10:03:12;37.10;;;22.33;;
44816;SDS011;30529;53.570;9.964;2023-02-16T10:06:02;35.87;;;22.77;;
44816;SDS011;30529;53.570;9.964;2023-02-16T10:08:56;34.27;;;21.53;;
44816;SDS011;30529;53.570;9.964;2023-02-16T10:11:40;36.00;;;21.87;;
44816;SDS011;30529;53.570;9.964;2023-02-16T10:17:01;36.03;;;22.83;;
44816;SDS011;30529;53.570;9.964;2023-02-16T10:22:40;37.63;;;22.80;;
44816;SDS011;30529;53.570;9.964;2023-02-16T10:25:12;36.90;;;21.10;;
44816;SDS011;30529;53.570;9.964;2023-02-16T10:27:59;42.97;;;23.77;;
44816;SDS011;30529;53.570;9.964;2023-02-16T10:30:39;38.53;;;21.63;;
44816;SDS011;30529;53.570;9.964;2023-02-16T10:33:59;38.20;;;23.17;;
44816;SDS011;30529;53.570;9.964;2023-02-16T10:36:23;42.47;;;23.03;;
44816;SDS011;30529;53.570;9.964;2023-02-16T10:39:15;34.80;;;21.97;;
44816;SDS011;30529;53.570;9.964;2023-02-16T10:41:55;37.37;;;22.83;;
44816;SDS011;30529;53.570;9.964;2023-02-16T10:44:42;37.50;;;22.77;;
44816;SDS011;30529;53.570;9.964;2023-02-16T10:47:36;42.80;;;23.50;;
44816;SDS011;30529;53.570;9.964;2023-02-16T10:50:12;33.10;;;22.00;;
44816;SDS011;30529;53.570;9.964;2023-02-16T10:52:47;37.90;;;23.60;;
44816;SDS011;30529;53.570;9.964;2023-02-16T10:55:14;38.83;;;22.23;;
44816;SDS011;30529;53.570;9.964;2023-02-16T10:57:41;37.83;;;22.80;;
44816;SDS011;30529;53.570;9.964;2023-02-16T11:00:11;43.80;;;23.63;;
44816;SDS011;30529;53.570;9.964;2023-02-16T11:02:41;37.70;;;22.23;;
44816;SDS011;30529;53.570;9.964;2023-02-16T11:05:27;35.17;;;23.90;;
44816;SDS011;30529;53.570;9.964;2023-02-16T11:07:56;36.73;;;22.00;;
44816;SDS011;30529;53.570;9.964;2023-02-16T11:13:04;35.50;;;22.30;;
44816;SDS011;30529;53.570;9.964;2023-02-16T11:15:31;36.80;;;22.33;;
44816;SDS011;30529;53.570;9.964;2023-02-16T11:18:02;37.23;;;22.63;;
44816;SDS011;30529;53.570;9.964;2023-02-16T11:28:46;35.23;;;21.63;;
44816;SDS011;30529;53.570;9.964;2023-02-16T11:31:32;40.80;;;23.27;;
44816;SDS011;30529;53.570;9.964;2023-02-16T11:34:02;40.10;;;23.13;;
44816;SDS011;30529;53.570;9.964;2023-02-16T11:41:27;36.53;;;22.67;;
44816;SDS011;30529;53.570;9.964;2023-02-16T11:43:58;35.70;;;22.17;;
44816;SDS011;30529;53.570;9.964;2023-02-16T11:46:26;35.07;;;22.63;;
44816;SDS011;30529;53.570;9.964;2023-02-16T11:48:53;38.40;;;22.70;;
44816;SDS011;30529;53.570;9.964;2023-02-16T11:51:30;37.37;;;23.03;;
44816;SDS011;30529;53.570;9.964;2023-02-16T11:53:59;40.87;;;23.93;;
44816;SDS011;30529;53.570;9.964;2023-02-16T11:56:28;39.37;;;23.87;;
44816;SDS011;30529;53.570;9.964;2023-02-16T11:59:17;39.30;;;22.93;;
44816;SDS011;30529;53.570;9.964;2023-02-16T12:01:51;43.73;;;23.80;;
44816;SDS011;30529;53.570;9.964;2023-02-16T12:07:19;41.77;;;23.27;;
44816;SDS011;30529;53.570;9.964;2023-02-16T12:12:30;40.43;;;23.80;;
44816;SDS011;30529;53.570;9.964;2023-02-16T12:20:51;41.57;;;25.07;;
44816;SDS011;30529;53.570;9.964;2023-02-16T12:23:31;44.07;;;26.00;;
44816;SDS011;30529;53.570;9.964;2023-02-16T12:26:11;41.23;;;24.70;;
44816;SDS011;30529;53.570;9.964;2023-02-16T12:28:56;43.20;;;25.00;;
44816;SDS011;30529;53.570;9.964;2023-02-16T12:34:27;43.10;;;25.67;;
44816;SDS011;30529;53.570;9.964;2023-02-16T12:36:56;50.23;;;27.33;;
44816;SDS011;30529;53.570;9.964;2023-02-16T12:44:47;43.87;;;25.63;;
44816;SDS011;30529;53.570;9.964;2023-02-16T12:47:24;49.33;;;28.47;;
44816;SDS011;30529;53.570;9.964;2023-02-16T12:50:03;46.10;;;28.00;;
44816;SDS011;30529;53.570;9.964;2023-02-16T12:55:17;49.17;;;28.20;;
44816;SDS011;30529;53.570;9.964;2023-02-16T12:58:08;44.60;;;26.43;;
44816;SDS011;30529;53.570;9.964;2023-02-16T13:00:50;48.17;;;26.90;;
44816;SDS011;30529;53.570;9.964;2023-02-16T13:03:31;51.40;;;29.13;;
44816;SDS011;30529;53.570;9.964;2023-02-16T13:06:07;49.80;;;26.77;;
44816;SDS011;30529;53.570;9.964;2023-02-16T13:09:39;47.33;;;25.80;;
44816;SDS011;30529;53.570;9.964;2023-02-16T13:11:50;49.37;;;27.73;;
44816;SDS011;30529;53.570;9.964;2023-02-16T13:14:24;51.77;;;28.53;;
44816;SDS011;30529;53.570;9.964;2023-02-16T13:16:59;45.03;;;26.33;;
44816;SDS011;30529;53.570;9.964;2023-02-16T13:19:28;52.23;;;28.23;;
44816;SDS011;30529;53.570;9.964;2023-02-16T13:22:07;59.03;;;31.00;;
44816;SDS011;30529;53.570;9.964;2023-02-16T13:30:51;50.47;;;27.90;;
44816;SDS011;30529;53.570;9.964;2023-02-16T13:33:49;48.27;;;27.30;;
44816;SDS011;30529;53.570;9.964;2023-02-16T13:39:45;48.93;;;25.73;;
44816;SDS011;30529;53.570;9.964;2023-02-16T13:45:35;44.00;;;25.73;;
44816;SDS011;30529;53.570;9.964;2023-02-16T13:48:12;49.97;;;27.57;;
44816;SDS011;30529;53.570;9.964;2023-02-16T13:50:45;46.30;;;26.63;;
44816;SDS011;30529;53.570;9.964;2023-02-16T13:53:18;48.97;;;28.77;;
44816;SDS011;30529;53.570;9.964;2023-02-16T13:55:46;43.23;;;26.30;;
44816;SDS011;30529;53.570;9.964;2023-02-16T14:00:44;49.40;;;26.90;;
44816;SDS011;30529;53.570;9.964;2023-02-16T14:05:46;50.87;;;27.63;;
44816;SDS011;30529;53.570;9.964;2023-02-16T14:13:20;48.20;;;27.63;;
44816;SDS011;30529;53.570;9.964;2023-02-16T14:15:53;47.30;;;27.40;;
44816;SDS011;30529;53.570;9.964;2023-02-16T14:18:29;52.73;;;29.47;;
44816;SDS011;30529;53.570;9.964;2023-02-16T14:21:03;51.60;;;28.83;;
44816;SDS011;30529;53.570;9.964;2023-02-16T14:23:40;45.97;;;27.63;;
44816;SDS011;30529;53.570;9.964;2023-02-16T14:26:06;57.67;;;30.53;;
44816;SDS011;30529;53.570;9.964;2023-02-16T14:31:01;55.23;;;29.80;;
44816;SDS011;30529;53.570;9.964;2023-02-16T14:33:46;52.93;;;28.47;;
44816;SDS011;30529;53.570;9.964;2023-02-16T14:36:21;46.30;;;27.43;;
44816;SDS011;30529;53.570;9.964;2023-02-16T14:38:51;53.77;;;29.53;;
44816;SDS011;30529;53.570;9.964;2023-02-16T14:43:50;49.57;;;28.27;;
44816;SDS011;30529;53.570;9.964;2023-02-16T14:46:29;45.13;;;28.73;;
44816;SDS011;30529;53.570;9.964;2023-02-16T14:52:08;41.57;;;25.60;;
44816;SDS011;30529;53.570;9.964;2023-02-16T15:00:51;43.90;;;27.03;;
44816;SDS011;30529;53.570;9.964;2023-02-16T15:03:22;45.73;;;26.43;;
44816;SDS011;30529;53.570;9.964;2023-02-16T15:08:28;46.70;;;28.07;;
44816;SDS011;30529;53.570;9.964;2023-02-16T15:11:02;43.33;;;26.87;;
44816;SDS011;30529;53.570;9.964;2023-02-16T15:13:40;41.60;;;26.13;;
44816;SDS011;30529;53.570;9.964;2023-02-16T15:16:07;47.80;;;28.13;;
44816;SDS011;30529;53.570;9.964;2023-02-16T15:18:44;48.43;;;27.57;;
44816;SDS011;30529;53.570;9.964;2023-02-16T15:21:17;44.63;;;26.57;;
44816;SDS011;30529;53.570;9.964;2023-02-16T15:23:52;47.70;;;28.77;;
44816;SDS011;30529;53.570;9.964;2023-02-16T15:26:21;45.83;;;28.10;;
44816;SDS011;30529;53.570;9.964;2023-02-16T15:28:53;43.77;;;28.33;;
44816;SDS011;30529;53.570;9.964;2023-02-16T15:31:23;47.60;;;28.63;;
44816;SDS011;30529;53.570;9.964;2023-02-16T15:33:58;46.90;;;27.93;;
44816;SDS011;30529;53.570;9.964;2023-02-16T15:36:34;42.97;;;27.17;;
44816;SDS011;30529;53.570;9.964;2023-02-16T15:39:06;49.10;;;29.17;;
44816;SDS011;30529;53.570;9.964;2023-02-16T15:41:38;45.27;;;28.33;;
44816;SDS011;30529;53.570;9.964;2023-02-16T15:44:13;49.27;;;29.83;;
44816;SDS011;30529;53.570;9.964;2023-02-16T15:47:06;45.53;;;28.40;;
44816;SDS011;30529;53.570;9.964;2023-02-16T15:49:38;44.40;;;27.83;;
44816;SDS011;30529;53.570;9.964;2023-02-16T15:52:05;48.20;;;28.87;;
44816;SDS011;30529;53.570;9.964;2023-02-16T15:54:36;47.50;;;27.47;;
44816;SDS011;30529;53.570;9.964;2023-02-16T15:57:11;48.03;;;29.27;;
44816;SDS011;30529;53.570;9.964;2023-02-16T15:59:46;51.80;;;30.30;;
44816;SDS011;30529;53.570;9.964;2023-02-16T16:02:15;45.00;;;28.30;;
44816;SDS011;30529;53.570;9.964;2023-02-16T16:04:50;51.13;;;28.93;;
44816;SDS011;30529;53.570;9.964;2023-02-16T16:07:21;49.20;;;28.90;;
44816;SDS011;30529;53.570;9.964;2023-02-16T16:09:54;51.47;;;28.83;;
44816;SDS011;30529;53.570;9.964;2023-02-16T16:12:22;50.20;;;30.47;;
44816;SDS011;30529;53.570;9.964;2023-02-16T16:14:57;51.57;;;30.40;;
44816;SDS011;30529;53.570;9.964;2023-02-16T16:17:26;45.40;;;28.50;;
44816;SDS011;30529;53.570;9.964;2023-02-16T16:19:55;51.90;;;32.20;;
44816;SDS011;30529;53.570;9.964;2023-02-16T16:25:02;46.17;;;30.43;;
44816;SDS011;30529;53.570;9.964;2023-02-16T16:28:03;54.13;;;33.27;;
44816;SDS011;30529;53.570;9.964;2023-02-16T16:30:35;53.60;;;33.97;;
44816;SDS011;30529;53.570;9.964;2023-02-16T16:33:09;53.23;;;32.03;;
44816;SDS011;30529;53.570;9.964;2023-02-16T16:35:38;54.63;;;33.03;;
44816;SDS011;30529;53.570;9.964;2023-02-16T16:41:03;50.60;;;30.67;;